Time;durP1;ratioP1;P1;durP2;ratioP2;P2;SDS_P1;SDS_P2;PMS_P1;PMS_P2;Temp;Humidity;BMP_temperature;BMP_pressure;BME280_temperature;BME280_humidity;BME280_pressure;Samples;Min_cycle;Max_cycle;Signal;HPM_P1;HPM_P2
2023/06/15 00:01:05;;;;;;;5.15;3.00;;;;;;;;;;4963854;28;20074;-79
2023/06/15 00:03:31;;;;;;;4.72;2.83;;;;;;;;;;4979377;28;20066;-78
2023/06/15 00:05:56;;;;;;;2.85;2.40;;;;;;;;;;4963690;28;20133;-77
2023/06/15 00:08:22;;;;;;;3.53;2.70;;;;;;;;;;4972156;28;20031;-79
2023/06/15 00:10:48;;;;;;;3.10;2.17;;;;;;;;;;4963663;28;20125;-78
2023/06/15 00:13:15;;;;;;;3.47;2.60;;;;;;;;;;4970511;28;20161;-80
2023/06/15 00:15:41;;;;;;;5.60;3.00;;;;;;;;;;4973814;28;20042;-80
2023/06/15 00:18:06;;;;;;;3.70;2.92;;;;;;;;;;4973246;28;20042;-77
2023/06/15 00:20:32;;;;;;;4.85;2.90;;;;;;;;;;4934891;28;20105;-79
2023/06/15 00:22:58;;;;;;;3.30;2.90;;;;;;;;;;4963840;28;20042;-79
2023/06/15 00:25:24;;;;;;;3.10;2.80;;;;;;;;;;4972867;28;20046;-79
2023/06/15 00:27:50;;;;;;;2.70;2.15;;;;;;;;;;4976337;28;20551;-79
2023/06/15 00:30:16;;;;;;;2.92;2.63;;;;;;;;;;4964497;28;20038;-79
2023/06/15 00:32:42;;;;;;;5.65;3.22;;;;;;;;;;4957573;28;20035;-78
2023/06/15 00:35:08;;;;;;;3.17;2.70;;;;;;;;;;4951664;28;20451;-78
2023/06/15 00:37:33;;;;;;;3.42;2.70;;;;;;;;;;4951192;28;20047;-77
2023/06/15 00:39:58;;;;;;;4.40;2.95;;;;;;;;;;4961153;28;20206;-77
2023/06/15 00:42:24;;;;;;;3.55;2.63;;;;;;;;;;4959645;28;20122;-78
2023/06/15 00:44:49;;;;;;;4.80;2.92;;;;;;;;;;4962054;28;20042;-78
2023/06/15 00:47:18;;;;;;;3.38;2.55;;;;;;;;;;4966009;28;20038;-77
2023/06/15 00:49:44;;;;;;;2.67;2.47;;;;;;;;;;4922671;28;20588;-78
2023/06/15 00:52:11;;;;;;;2.65;2.38;;;;;;;;;;4971499;28;20034;-78
2023/06/15 00:54:38;;;;;;;2.40;2.20;;;;;;;;;;4961336;28;20046;-78
2023/06/15 00:57:04;;;;;;;2.78;2.47;;;;;;;;;;4967541;28;20117;-78
2023/06/15 00:59:30;;;;;;;5.28;2.60;;;;;;;;;;4970252;28;20126;-78
2023/06/15 01:05:17;;;;;;;3.10;2.38;;;;;;;;;;4960691;28;20053;-80
2023/06/15 01:07:47;;;;;;;2.60;2.40;;;;;;;;;;4965257;28;20414;-78
2023/06/15 01:10:16;;;;;;;2.97;2.25;;;;;;;;;;4961494;28;20530;-79
2023/06/15 01:12:44;;;;;;;2.30;2.10;;;;;;;;;;4975672;28;20118;-77
2023/06/15 01:15:11;;;;;;;4.25;3.13;;;;;;;;;;4968334;28;20038;-78
2023/06/15 01:17:44;;;;;;;3.30;2.95;;;;;;;;;;4958342;28;20106;-78
2023/06/15 01:20:16;;;;;;;3.33;2.45;;;;;;;;;;4971229;28;20054;-78
2023/06/15 01:23:02;;;;;;;3.50;2.72;;;;;;;;;;4951311;28;20046;-77
2023/06/15 01:25:37;;;;;;;6.05;2.60;;;;;;;;;;4961398;28;20049;-78
2023/06/15 01:28:05;;;;;;;2.22;2.03;;;;;;;;;;4958941;28;20031;-78
2023/06/15 01:30:37;;;;;;;4.82;2.60;;;;;;;;;;4963994;28;20121;-79
2023/06/15 01:33:02;;;;;;;4.10;2.58;;;;;;;;;;4952425;28;20034;-78
2023/06/15 01:35:27;;;;;;;4.57;2.83;;;;;;;;;;4972849;28;20372;-78
2023/06/15 01:37:53;;;;;;;3.42;3.00;;;;;;;;;;4964743;28;20049;-78
2023/06/15 01:40:18;;;;;;;3.58;2.47;;;;;;;;;;4963140;28;20543;-78
2023/06/15 01:42:45;;;;;;;3.75;2.35;;;;;;;;;;4965568;28;20043;-78
2023/06/15 01:45:13;;;;;;;2.90;2.42;;;;;;;;;;4963864;28;20036;-78
2023/06/15 01:47:39;;;;;;;6.07;3.05;;;;;;;;;;4946460;28;20104;-78
2023/06/15 01:50:06;;;;;;;5.63;3.10;;;;;;;;;;4965305;28;20363;-78
2023/06/15 01:52:32;;;;;;;2.70;1.95;;;;;;;;;;4970159;28;20034;-77
2023/06/15 01:54:57;;;;;;;3.20;2.60;;;;;;;;;;4970633;28;20077;-78
2023/06/15 01:57:23;;;;;;;4.53;3.05;;;;;;;;;;4976905;28;20319;-77
2023/06/15 01:59:48;;;;;;;3.38;2.50;;;;;;;;;;4959794;28;20046;-77
2023/06/15 02:02:13;;;;;;;4.53;2.80;;;;;;;;;;4918106;28;20043;-78
2023/06/15 02:04:39;;;;;;;3.80;2.85;;;;;;;;;;4960487;28;20050;-77
2023/06/15 02:07:04;;;;;;;4.93;2.65;;;;;;;;;;4969297;28;20043;-77
2023/06/15 02:09:30;;;;;;;1.95;1.80;;;;;;;;;;4967898;28;20047;-78
2023/06/15 02:11:57;;;;;;;5.15;2.60;;;;;;;;;;4956877;28;20039;-79
2023/06/15 02:14:23;;;;;;;4.03;2.33;;;;;;;;;;4959033;28;20030;-79
2023/06/15 02:16:49;;;;;;;4.07;3.00;;;;;;;;;;4963172;28;20042;-78
2023/06/15 02:19:21;;;;;;;4.47;2.75;;;;;;;;;;4968106;28;20543;-78
2023/06/15 02:21:49;;;;;;;3.67;2.80;;;;;;;;;;4955347;28;20102;-78
2023/06/15 02:24:16;;;;;;;7.00;2.65;;;;;;;;;;4959161;28;20046;-77
2023/06/15 02:26:42;;;;;;;4.30;3.10;;;;;;;;;;4974277;28;20108;-78
2023/06/15 02:29:08;;;;;;;3.33;3.00;;;;;;;;;;4963527;28;20040;-78
2023/06/15 02:31:33;;;;;;;2.72;2.25;;;;;;;;;;4960623;28;20109;-78
2023/06/15 02:33:58;;;;;;;2.30;2.10;;;;;;;;;;4961572;28;20031;-78
2023/06/15 02:36:24;;;;;;;2.47;1.85;;;;;;;;;;4962324;28;20114;-78
2023/06/15 02:38:50;;;;;;;4.22;2.85;;;;;;;;;;4957545;28;20153;-78
2023/06/15 02:41:15;;;;;;;4.30;3.00;;;;;;;;;;4941006;28;20114;-78
2023/06/15 02:43:40;;;;;;;4.13;2.95;;;;;;;;;;4930050;28;20039;-78
2023/06/15 02:46:06;;;;;;;3.88;2.40;;;;;;;;;;4959252;28;20164;-77
2023/06/15 02:48:33;;;;;;;3.10;2.80;;;;;;;;;;4966336;28;20093;-78
2023/06/15 02:50:58;;;;;;;3.35;2.55;;;;;;;;;;4970248;28;20050;-78
2023/06/15 02:53:24;;;;;;;4.00;2.60;;;;;;;;;;4964117;28;20047;-77
2023/06/15 02:55:51;;;;;;;2.35;2.15;;;;;;;;;;4948263;28;20562;-77
2023/06/15 02:58:19;;;;;;;4.55;2.97;;;;;;;;;;4966037;28;20066;-77
2023/06/15 03:00:46;;;;;;;7.05;3.00;;;;;;;;;;4963880;28;20129;-77
2023/06/15 03:03:12;;;;;;;4.15;3.00;;;;;;;;;;4944313;28;20062;-77
2023/06/15 03:05:39;;;;;;;3.53;2.22;;;;;;;;;;4955578;28;20479;-77
2023/06/15 03:08:05;;;;;;;5.53;3.30;;;;;;;;;;4958310;28;20492;-78
2023/06/15 03:10:30;;;;;;;2.90;2.22;;;;;;;;;;4962895;28;20041;-77
2023/06/15 03:12:55;;;;;;;2.35;2.10;;;;;;;;;;4969029;28;20047;-77
2023/06/15 03:15:21;;;;;;;5.55;3.05;;;;;;;;;;4964723;28;20122;-77
2023/06/15 03:17:46;;;;;;;2.97;2.33;;;;;;;;;;4957465;28;20055;-78
2023/06/15 03:20:12;;;;;;;4.22;2.97;;;;;;;;;;4968547;28;20054;-78
2023/06/15 03:22:37;;;;;;;2.70;2.13;;;;;;;;;;4971962;28;20069;-78
2023/06/15 03:25:03;;;;;;;3.30;2.15;;;;;;;;;;4947147;28;20035;-78
2023/06/15 03:27:32;;;;;;;3.78;2.40;;;;;;;;;;4944104;28;20031;-78
2023/06/15 03:30:01;;;;;;;4.75;2.60;;;;;;;;;;4944820;28;20042;-77
2023/06/15 03:32:27;;;;;;;3.35;2.40;;;;;;;;;;4953636;28;20051;-78
2023/06/15 03:34:57;;;;;;;3.78;2.65;;;;;;;;;;4971853;28;20081;-77
2023/06/15 03:37:22;;;;;;;3.35;2.45;;;;;;;;;;4959558;28;20149;-77
2023/06/15 03:39:48;;;;;;;6.80;3.78;;;;;;;;;;4959754;28;20113;-77
2023/06/15 03:42:13;;;;;;;2.72;2.42;;;;;;;;;;4955432;28;20196;-77
2023/06/15 03:44:39;;;;;;;7.50;3.30;;;;;;;;;;4971936;28;20038;-77
2023/06/15 03:47:05;;;;;;;3.95;2.67;;;;;;;;;;4963984;28;20173;-77
2023/06/15 03:49:30;;;;;;;3.40;2.92;;;;;;;;;;4955581;28;20898;-77
2023/06/15 03:51:55;;;;;;;4.03;2.80;;;;;;;;;;4949177;28;20480;-77
2023/06/15 15:56:08;;;;;;;7.90;3.90;;;;;;;;;;5013587;23;20066;-79
2023/06/15 15:58:34;;;;;;;8.13;4.15;;;;;;;;;;5033467;28;20476;-78
2023/06/15 16:01:01;;;;;;;4.55;3.80;;;;;;;;;;5035165;28;20032;-79
2023/06/15 16:03:26;;;;;;;4.18;3.03;;;;;;;;;;5036251;28;20013;-78
2023/06/15 16:05:51;;;;;;;3.42;2.70;;;;;;;;;;5034016;28;20029;-77
2023/06/15 16:08:17;;;;;;;5.00;3.75;;;;;;;;;;5031869;28;20029;-77
2023/06/15 16:10:44;;;;;;;4.20;2.88;;;;;;;;;;5034351;28;20108;-76
2023/06/15 16:13:09;;;;;;;5.18;3.00;;;;;;;;;;5029927;28;20508;-77
2023/06/15 16:15:35;;;;;;;5.20;3.67;;;;;;;;;;5034121;28;20029;-77
2023/06/15 16:18:00;;;;;;;5.35;3.60;;;;;;;;;;5036321;28;20040;-76
2023/06/15 16:20:27;;;;;;;6.25;3.90;;;;;;;;;;5034234;28;20018;-76
2023/06/15 16:22:52;;;;;;;3.15;2.90;;;;;;;;;;5029104;28;20032;-77
2023/06/15 16:25:18;;;;;;;3.90;3.50;;;;;;;;;;5030868;28;20413;-78
2023/06/15 16:27:43;;;;;;;4.18;3.75;;;;;;;;;;5027002;28;20110;-77
2023/06/15 16:30:09;;;;;;;4.15;3.30;;;;;;;;;;5026692;28;20017;-77
2023/06/15 16:32:37;;;;;;;4.65;3.80;;;;;;;;;;5037404;28;20029;-77
2023/06/15 16:35:03;;;;;;;4.32;3.70;;;;;;;;;;5028075;28;20021;-77
2023/06/15 16:37:28;;;;;;;5.57;3.75;;;;;;;;;;5031055;28;20044;-77
2023/06/15 16:39:55;;;;;;;6.18;4.07;;;;;;;;;;5023068;28;20025;-77
2023/06/15 16:42:30;;;;;;;5.10;3.53;;;;;;;;;;5029494;28;20235;-77
2023/06/15 16:44:57;;;;;;;4.20;3.80;;;;;;;;;;5029373;28;20459;-76
2023/06/15 16:47:23;;;;;;;7.05;3.60;;;;;;;;;;5031893;28;20510;-77
2023/06/15 16:49:49;;;;;;;5.88;3.25;;;;;;;;;;5031128;28;20041;-77
2023/06/15 16:52:16;;;;;;;6.45;3.83;;;;;;;;;;5032673;28;20075;-77
2023/06/15 16:54:44;;;;;;;4.28;3.60;;;;;;;;;;5018538;28;20115;-76
2023/06/15 16:57:11;;;;;;;3.92;3.28;;;;;;;;;;5032163;28;20029;-77
2023/06/15 16:59:41;;;;;;;5.55;3.80;;;;;;;;;;5033291;28;20439;-76
2023/06/15 17:02:10;;;;;;;4.67;3.60;;;;;;;;;;5033923;28;20377;-77
2023/06/15 17:04:36;;;;;;;3.95;3.50;;;;;;;;;;5032344;28;20035;-77
2023/06/15 17:07:03;;;;;;;4.15;3.38;;;;;;;;;;5026744;28;20511;-77
2023/06/15 17:09:30;;;;;;;4.45;3.40;;;;;;;;;;5039164;28;20178;-77
2023/06/15 17:11:55;;;;;;;5.80;3.83;;;;;;;;;;5034825;28;20061;-79
2023/06/15 17:14:24;;;;;;;3.50;3.20;;;;;;;;;;5035562;28;20071;-78
2023/06/15 17:16:50;;;;;;;3.78;3.38;;;;;;;;;;5038822;28;20160;-78
2023/06/15 17:19:16;;;;;;;5.03;3.88;;;;;;;;;;5036948;28;20060;-78
2023/06/15 17:21:42;;;;;;;6.85;3.92;;;;;;;;;;5038761;28;20049;-77
2023/06/15 17:24:09;;;;;;;5.10;3.97;;;;;;;;;;5031696;28;20026;-77
2023/06/15 17:26:36;;;;;;;6.68;3.80;;;;;;;;;;5032399;28;20473;-77
2023/06/15 17:29:01;;;;;;;6.03;3.65;;;;;;;;;;5017688;28;20033;-76
2023/06/15 17:31:27;;;;;;;5.05;3.47;;;;;;;;;;5033183;28;20045;-77
2023/06/15 17:33:53;;;;;;;4.95;3.88;;;;;;;;;;5031133;28;20049;-77
2023/06/15 17:36:18;;;;;;;4.63;3.45;;;;;;;;;;5032638;28;20481;-77
2023/06/15 17:38:44;;;;;;;4.18;3.53;;;;;;;;;;5025789;28;20024;-77
2023/06/15 17:41:14;;;;;;;3.85;3.45;;;;;;;;;;5030961;28;20403;-77
2023/06/15 17:43:40;;;;;;;4.10;3.50;;;;;;;;;;5035858;28;20440;-77
2023/06/15 17:46:07;;;;;;;4.20;3.70;;;;;;;;;;5037019;28;20033;-77
2023/06/15 17:48:32;;;;;;;4.15;3.50;;;;;;;;;;5035380;28;20396;-80
2023/06/15 17:50:58;;;;;;;3.38;3.08;;;;;;;;;;5037086;28;20029;-77
2023/06/15 17:53:25;;;;;;;4.60;3.75;;;;;;;;;;5034508;28;20033;-77
2023/06/15 17:55:50;;;;;;;7.60;3.45;;;;;;;;;;5033151;28;20487;-78
2023/06/15 17:58:17;;;;;;;4.53;3.33;;;;;;;;;;5037293;28;20024;-78
2023/06/15 18:00:42;;;;;;;4.05;3.20;;;;;;;;;;5034012;28;20035;-78
2023/06/15 18:03:08;;;;;;;3.58;2.63;;;;;;;;;;5026409;28;20032;-77
2023/06/15 18:05:33;;;;;;;7.78;3.97;;;;;;;;;;5034081;28;20029;-76
2023/06/15 18:07:58;;;;;;;6.43;4.00;;;;;;;;;;5035593;28;20055;-77
2023/06/15 18:10:24;;;;;;;7.22;3.80;;;;;;;;;;5034491;28;20032;-78
2023/06/15 18:12:49;;;;;;;5.90;3.53;;;;;;;;;;5034873;28;20028;-78
2023/06/15 18:15:15;;;;;;;8.38;3.70;;;;;;;;;;5033568;28;20056;-77
2023/06/15 18:17:41;;;;;;;7.45;3.90;;;;;;;;;;5026639;28;20063;-78
2023/06/15 18:20:06;;;;;;;6.15;3.42;;;;;;;;;;5026410;28;20076;-77
2023/06/15 18:22:35;;;;;;;3.33;3.03;;;;;;;;;;5025472;28;20199;-79
2023/06/15 18:25:01;;;;;;;4.22;2.80;;;;;;;;;;5025222;28;20025;-78
2023/06/15 18:27:26;;;;;;;3.35;2.90;;;;;;;;;;5023928;28;20033;-78
2023/06/15 18:29:54;;;;;;;6.53;3.80;;;;;;;;;;5019085;28;20048;-77
2023/06/15 18:32:20;;;;;;;4.00;3.60;;;;;;;;;;5019185;28;20033;-77
2023/06/15 18:34:47;;;;;;;4.22;3.30;;;;;;;;;;5018678;28;20083;-78
2023/06/15 18:37:13;;;;;;;3.53;3.20;;;;;;;;;;5029514;28;20017;-78
2023/06/15 18:39:38;;;;;;;7.75;3.85;;;;;;;;;;5023565;28;20040;-78
2023/06/15 18:42:05;;;;;;;4.93;3.80;;;;;;;;;;5020258;28;20026;-78
2023/06/15 18:44:31;;;;;;;6.22;3.60;;;;;;;;;;5028481;28;20017;-76
2023/06/15 18:46:56;;;;;;;5.30;3.80;;;;;;;;;;5029492;28;20033;-77
2023/06/15 18:49:22;;;;;;;6.35;3.78;;;;;;;;;;5027549;28;20025;-78
2023/06/15 18:51:47;;;;;;;7.28;3.60;;;;;;;;;;5026604;28;20051;-77
2023/06/15 18:54:12;;;;;;;5.15;4.03;;;;;;;;;;5027890;28;20030;-77
2023/06/15 18:56:38;;;;;;;6.43;4.07;;;;;;;;;;5029421;28;20040;-75
2023/06/15 18:59:03;;;;;;;7.15;4.00;;;;;;;;;;5028958;28;20032;-78
2023/06/15 19:01:29;;;;;;;5.97;4.50;;;;;;;;;;5026176;28;20041;-79
2023/06/15 19:03:54;;;;;;;5.15;4.10;;;;;;;;;;5025814;28;20425;-80
2023/06/15 19:06:20;;;;;;;6.15;3.83;;;;;;;;;;5032063;28;20060;-78
2023/06/15 19:08:45;;;;;;;4.40;3.88;;;;;;;;;;5024434;28;20028;-78
2023/06/15 19:11:12;;;;;;;5.30;3.60;;;;;;;;;;5025530;28;20028;-78
2023/06/15 19:13:37;;;;;;;4.60;3.50;;;;;;;;;;5027355;28;20029;-78
2023/06/15 19:16:04;;;;;;;5.53;3.40;;;;;;;;;;5021528;28;20028;-77
2023/06/15 19:18:29;;;;;;;6.53;3.30;;;;;;;;;;5033626;28;20100;-78
2023/06/15 19:20:55;;;;;;;4.65;3.55;;;;;;;;;;5028686;28;20203;-78
2023/06/15 19:23:20;;;;;;;6.88;3.38;;;;;;;;;;5037277;28;20393;-78
2023/06/15 19:25:49;;;;;;;3.65;3.17;;;;;;;;;;5033799;28;20116;-77
2023/06/15 19:28:15;;;;;;;8.73;5.18;;;;;;;;;;5034177;28;20095;-78
2023/06/15 19:30:40;;;;;;;5.78;5.05;;;;;;;;;;5031181;28;20072;-78
2023/06/15 19:33:08;;;;;;;5.75;3.70;;;;;;;;;;5024874;28;20096;-79
2023/06/15 19:35:35;;;;;;;5.30;3.47;;;;;;;;;;5031217;28;20398;-79
2023/06/15 19:38:01;;;;;;;6.30;3.22;;;;;;;;;;5016800;28;20108;-79
2023/06/15 19:40:26;;;;;;;4.13;3.72;;;;;;;;;;5032346;28;20477;-80
2023/06/15 19:42:52;;;;;;;5.13;3.47;;;;;;;;;;5031222;28;20027;-79
2023/06/15 19:45:17;;;;;;;3.67;3.10;;;;;;;;;;5031315;28;20034;-80
2023/06/15 19:47:42;;;;;;;3.92;3.40;;;;;;;;;;5029358;28;20033;-79
2023/06/15 19:50:08;;;;;;;3.63;3.30;;;;;;;;;;5023846;28;20108;-80
2023/06/15 19:52:34;;;;;;;4.45;3.35;;;;;;;;;;5025692;28;20052;-79
2023/06/15 19:54:59;;;;;;;6.72;3.00;;;;;;;;;;5035879;28;20022;-78
2023/06/15 19:57:25;;;;;;;8.13;3.58;;;;;;;;;;5025472;28;20071;-79
2023/06/15 19:59:50;;;;;;;3.97;3.00;;;;;;;;;;5032836;28;20080;-80
2023/06/15 20:02:16;;;;;;;3.45;3.10;;;;;;;;;;5032230;28;20025;-80
2023/06/15 20:04:42;;;;;;;5.60;3.10;;;;;;;;;;5031230;28;20029;-80
2023/06/15 20:07:10;;;;;;;3.88;3.00;;;;;;;;;;5030399;28;20030;-79
2023/06/15 20:09:36;;;;;;;3.83;2.95;;;;;;;;;;5026425;28;20692;-79
2023/06/15 20:12:02;;;;;;;5.40;3.15;;;;;;;;;;5033398;28;20028;-80
2023/06/15 20:14:28;;;;;;;4.72;3.25;;;;;;;;;;5034086;28;20020;-79
2023/06/15 20:16:53;;;;;;;5.30;3.08;;;;;;;;;;5032141;28;20025;-79
2023/06/15 20:19:19;;;;;;;4.43;3.00;;;;;;;;;;5032282;28;20030;-79
2023/06/15 20:21:45;;;;;;;3.13;2.67;;;;;;;;;;5033387;28;20082;-80
2023/06/15 20:24:11;;;;;;;4.88;3.17;;;;;;;;;;5035916;28;20055;-79
2023/06/15 20:26:36;;;;;;;4.28;2.83;;;;;;;;;;5034170;28;20397;-78
2023/06/15 20:29:02;;;;;;;3.60;2.95;;;;;;;;;;5028460;28;20025;-78
2023/06/15 20:31:27;;;;;;;5.93;3.00;;;;;;;;;;5028121;28;20021;-78
2023/06/15 20:33:53;;;;;;;6.10;3.00;;;;;;;;;;5025569;28;20029;-78
2023/06/15 20:36:19;;;;;;;3.65;2.90;;;;;;;;;;5028817;28;21872;-78
2023/06/15 20:38:45;;;;;;;3.30;2.70;;;;;;;;;;5030162;28;20104;-78
2023/06/15 20:41:11;;;;;;;5.47;2.80;;;;;;;;;;5030588;28;20021;-78
2023/06/15 20:43:37;;;;;;;4.93;2.63;;;;;;;;;;5027663;28;20389;-78
2023/06/15 20:46:02;;;;;;;4.35;3.13;;;;;;;;;;5033124;28;20408;-78
2023/06/15 20:48:37;;;;;;;3.60;3.00;;;;;;;;;;5027514;28;20017;-77
2023/06/15 20:51:06;;;;;;;3.40;2.72;;;;;;;;;;5026299;28;20504;-77
2023/06/15 20:53:35;;;;;;;3.58;2.90;;;;;;;;;;5031811;28;20043;-78
2023/06/15 20:56:04;;;;;;;5.75;2.97;;;;;;;;;;5023635;28;20182;-78
2023/06/15 20:58:31;;;;;;;4.38;2.47;;;;;;;;;;5032397;28;20102;-78
2023/06/15 21:00:57;;;;;;;3.58;2.92;;;;;;;;;;5036452;28;20044;-78
2023/06/15 21:03:22;;;;;;;5.32;2.80;;;;;;;;;;5024556;28;20013;-79
2023/06/15 21:05:48;;;;;;;4.28;3.10;;;;;;;;;;5028314;28;20044;-78
2023/06/15 21:08:13;;;;;;;5.18;3.20;;;;;;;;;;5036324;28;20020;-78
2023/06/15 21:10:39;;;;;;;3.47;3.08;;;;;;;;;;5032358;28;20148;-81
2023/06/15 21:13:05;;;;;;;3.70;2.88;;;;;;;;;;5029565;28;20402;-78
2023/06/15 21:15:31;;;;;;;5.75;2.88;;;;;;;;;;5029579;28;20032;-78
2023/06/15 21:17:56;;;;;;;4.63;3.00;;;;;;;;;;5022966;28;20310;-78
2023/06/15 21:20:23;;;;;;;3.72;3.05;;;;;;;;;;5025923;28;20013;-78
2023/06/15 21:22:48;;;;;;;4.10;3.10;;;;;;;;;;5032570;28;20032;-78
2023/06/15 21:25:14;;;;;;;3.72;2.65;;;;;;;;;;5025618;28;20021;-78
2023/06/15 21:27:39;;;;;;;4.45;2.80;;;;;;;;;;5026857;28;20033;-80
2023/06/15 21:30:06;;;;;;;3.47;3.13;;;;;;;;;;5027609;28;20397;-79
2023/06/15 21:32:31;;;;;;;3.83;3.20;;;;;;;;;;5030221;28;20110;-79
2023/06/15 21:34:57;;;;;;;4.00;2.97;;;;;;;;;;5027549;28;20083;-80
2023/06/15 21:37:22;;;;;;;3.83;2.78;;;;;;;;;;5026799;28;20025;-79
2023/06/15 21:39:48;;;;;;;3.88;2.90;;;;;;;;;;5027487;28;20456;-78
2023/06/15 21:42:14;;;;;;;4.25;2.90;;;;;;;;;;5029878;28;20563;-80
2023/06/15 21:44:48;;;;;;;3.38;2.95;;;;;;;;;;5029867;28;20029;-80
2023/06/15 21:47:15;;;;;;;3.45;3.10;;;;;;;;;;5029319;28;20080;-83
2023/06/15 21:49:41;;;;;;;4.30;3.20;;;;;;;;;;5030384;28;20025;-78
2023/06/15 21:52:07;;;;;;;7.10;3.53;;;;;;;;;;5029548;28;20540;-81
2023/06/15 21:54:34;;;;;;;4.32;3.10;;;;;;;;;;5034055;28;20413;-78
2023/06/15 21:57:00;;;;;;;3.50;2.95;;;;;;;;;;5070812;23;20072;-76
2023/06/15 21:59:25;;;;;;;4.90;2.95;;;;;;;;;;5038337;28;20468;-76
2023/06/15 22:01:51;;;;;;;4.07;2.60;;;;;;;;;;5040664;28;20037;-76
2023/06/15 22:04:16;;;;;;;4.90;3.30;;;;;;;;;;5023670;28;20028;-76
2023/06/15 22:06:41;;;;;;;5.65;2.80;;;;;;;;;;5044966;28;20036;-77
2023/06/15 22:09:08;;;;;;;4.47;2.42;;;;;;;;;;5040560;28;20021;-78
2023/06/15 22:11:34;;;;;;;7.60;3.22;;;;;;;;;;5029223;28;20040;-78
2023/06/15 22:14:00;;;;;;;4.53;3.25;;;;;;;;;;5035087;28;20021;-77
2023/06/15 22:16:27;;;;;;;4.07;2.70;;;;;;;;;;5033290;28;20496;-77
2023/06/15 22:18:53;;;;;;;3.10;2.30;;;;;;;;;;5034853;28;20036;-77
2023/06/15 22:21:19;;;;;;;4.55;3.13;;;;;;;;;;5030450;28;20033;-77
2023/06/15 22:23:44;;;;;;;3.45;2.67;;;;;;;;;;5039657;28;20030;-78
2023/06/15 22:26:11;;;;;;;4.72;3.40;;;;;;;;;;5033444;28;20043;-78
2023/06/15 22:28:37;;;;;;;3.45;3.13;;;;;;;;;;5037269;28;20119;-78
2023/06/15 22:31:02;;;;;;;3.05;2.78;;;;;;;;;;5034719;28;20084;-78
2023/06/15 22:33:28;;;;;;;3.47;2.70;;;;;;;;;;5034374;28;20029;-77
2023/06/15 22:35:53;;;;;;;3.53;2.88;;;;;;;;;;5035943;28;20036;-78
2023/06/15 22:38:18;;;;;;;4.93;2.97;;;;;;;;;;5014105;28;20073;-78
2023/06/15 22:40:44;;;;;;;3.97;2.90;;;;;;;;;;5032778;28;20031;-78
2023/06/15 22:43:09;;;;;;;4.03;3.10;;;;;;;;;;5035859;28;20021;-77
2023/06/15 22:45:35;;;;;;;4.65;2.90;;;;;;;;;;5031287;28;20029;-78
2023/06/15 22:48:01;;;;;;;3.10;2.80;;;;;;;;;;5039020;28;20021;-78
2023/06/15 22:50:27;;;;;;;2.78;2.40;;;;;;;;;;5033064;28;20029;-77
2023/06/15 22:52:54;;;;;;;3.67;3.20;;;;;;;;;;5037818;28;20021;-78
2023/06/15 22:55:21;;;;;;;3.03;2.17;;;;;;;;;;5024926;28;20448;-78
2023/06/15 22:57:47;;;;;;;3.15;2.85;;;;;;;;;;5031616;28;20076;-78
2023/06/15 23:00:13;;;;;;;3.13;2.58;;;;;;;;;;5019080;28;20029;-78
2023/06/15 23:02:38;;;;;;;3.47;3.17;;;;;;;;;;5019704;28;20025;-77
2023/06/15 23:05:06;;;;;;;3.13;2.83;;;;;;;;;;5031290;28;20028;-78
2023/06/15 23:07:32;;;;;;;4.15;3.47;;;;;;;;;;5035198;28;20029;-78
2023/06/15 23:09:57;;;;;;;3.13;2.63;;;;;;;;;;5040369;28;20665;-78
2023/06/15 23:12:24;;;;;;;4.80;3.40;;;;;;;;;;5036818;28;20027;-79
2023/06/15 23:14:52;;;;;;;3.28;2.97;;;;;;;;;;5042420;28;20044;-78
2023/06/15 23:17:20;;;;;;;4.13;3.63;;;;;;;;;;5030258;28;20455;-78
2023/06/15 23:19:49;;;;;;;3.85;3.10;;;;;;;;;;5042608;28;20508;-78
2023/06/15 23:22:21;;;;;;;3.67;3.00;;;;;;;;;;5034700;28;20053;-78
2023/06/15 23:24:51;;;;;;;4.85;3.00;;;;;;;;;;5037836;28;20033;-78
2023/06/15 23:27:18;;;;;;;4.25;3.38;;;;;;;;;;5035973;28;20096;-78
2023/06/15 23:29:44;;;;;;;3.33;3.00;;;;;;;;;;5022358;28;20029;-78
2023/06/15 23:32:11;;;;;;;4.05;2.92;;;;;;;;;;5036132;28;20029;-77
2023/06/15 23:34:37;;;;;;;3.75;3.00;;;;;;;;;;5041814;28;20032;-77
2023/06/15 23:37:03;;;;;;;2.97;2.67;;;;;;;;;;5039699;28;20029;-78
2023/06/15 23:39:29;;;;;;;4.53;3.15;;;;;;;;;;5035152;28;20076;-78
2023/06/15 23:41:54;;;;;;;8.10;3.35;;;;;;;;;;5022944;28;20252;-77
2023/06/15 23:44:20;;;;;;;3.10;2.80;;;;;;;;;;5029286;28;20381;-77
2023/06/15 23:46:45;;;;;;;4.50;3.70;;;;;;;;;;5042827;28;20523;-77
2023/06/15 23:49:11;;;;;;;4.50;3.10;;;;;;;;;;5039522;28;20451;-78
2023/06/15 23:51:36;;;;;;;4.35;2.60;;;;;;;;;;5039684;28;20305;-78
2023/06/15 23:54:01;;;;;;;3.17;2.80;;;;;;;;;;5043467;28;20032;-78
2023/06/15 23:56:27;;;;;;;3.45;2.90;;;;;;;;;;5040772;28;20435;-77
2023/06/15 23:58:52;;;;;;;3.45;3.15;;;;;;;;;;5023122;28;20036;-78
